sensor_id;sensor_type;location;lat;lon;timestamp;pressure;altitude;pressure_sealevel;temperature;humidity
61742;BME280;47650;49.848;9.620;2022-12-11T00:01:48;98950.66;;;1.60;64.35
61742;BME280;47650;49.848;9.620;2022-12-11T00:04:13;98988.91;;;0.96;65.78
61742;BME280;47650;49.848;9.620;2022-12-11T00:06:39;99003.97;;;1.05;66.88
61742;BME280;47650;49.848;9.620;2022-12-11T00:09:04;99000.72;;;1.41;66.14
61742;BME280;47650;49.848;9.620;2022-12-11T00:11:30;98998.84;;;1.56;65.62
61742;BME280;47650;49.848;9.620;2022-12-11T00:13:56;98995.72;;;1.77;65.50
61742;BME280;47650;49.848;9.620;2022-12-11T00:16:21;98998.34;;;1.77;65.21
61742;BME280;47650;49.848;9.620;2022-12-11T00:18:46;98983.81;;;1.73;65.03
61742;BME280;47650;49.848;9.620;2022-12-11T00:21:13;98980.66;;;1.67;64.89
61742;BME280;47650;49.848;9.620;2022-12-11T00:23:41;98999.78;;;2.06;64.75
61742;BME280;47650;49.848;9.620;2022-12-11T00:26:09;99000.19;;;2.26;64.50
61742;BME280;47650;49.848;9.620;2022-12-11T00:28:36;98995.88;;;2.38;64.64
61742;BME280;47650;49.848;9.620;2022-12-11T00:31:05;98985.00;;;2.31;63.88
61742;BME280;47650;49.848;9.620;2022-12-11T00:33:32;99001.56;;;2.19;63.55
61742;BME280;47650;49.848;9.620;2022-12-11T00:35:57;98996.00;;;2.11;62.85
61742;BME280;47650;49.848;9.620;2022-12-11T00:38:23;99000.28;;;2.37;63.77
61742;BME280;47650;49.848;9.620;2022-12-11T00:40:49;98979.25;;;2.26;64.25
61742;BME280;47650;49.848;9.620;2022-12-11T00:43:15;99003.88;;;1.85;63.71
61742;BME280;47650;49.848;9.620;2022-12-11T00:45:44;99001.75;;;2.16;62.99
61742;BME280;47650;49.848;9.620;2022-12-11T00:48:11;99012.63;;;2.22;63.12
61742;BME280;47650;49.848;9.620;2022-12-11T00:50:37;99001.78;;;1.90;64.62
61742;BME280;47650;49.848;9.620;2022-12-11T00:53:04;99017.28;;;1.27;66.87
61742;BME280;47650;49.848;9.620;2022-12-11T00:55:35;99016.19;;;1.04;68.21
61742;BME280;47650;49.848;9.620;2022-12-11T00:58:03;98999.16;;;0.99;67.92
61742;BME280;47650;49.848;9.620;2022-12-11T01:00:30;99010.03;;;1.05;68.20
61742;BME280;47650;49.848;9.620;2022-12-11T01:02:55;99026.22;;;1.50;68.08
61742;BME280;47650;49.848;9.620;2022-12-11T01:05:21;98992.19;;;0.85;69.03
61742;BME280;47650;49.848;9.620;2022-12-11T01:07:46;99005.91;;;0.88;69.18
61742;BME280;47650;49.848;9.620;2022-12-11T01:10:20;99027.56;;;1.30;68.44
61742;BME280;47650;49.848;9.620;2022-12-11T01:12:56;99037.00;;;1.19;68.17
61742;BME280;47650;49.848;9.620;2022-12-11T01:15:31;99035.94;;;1.08;67.92
61742;BME280;47650;49.848;9.620;2022-12-11T01:18:00;99041.97;;;1.09;67.22
61742;BME280;47650;49.848;9.620;2022-12-11T01:20:27;99016.28;;;1.03;67.66
61742;BME280;47650;49.848;9.620;2022-12-11T01:22:57;99042.75;;;0.84;67.56
61742;BME280;47650;49.848;9.620;2022-12-11T01:25:22;99024.50;;;1.24;66.72
61742;BME280;47650;49.848;9.620;2022-12-11T01:27:51;99031.47;;;1.63;66.03
61742;BME280;47650;49.848;9.620;2022-12-11T01:30:18;99026.63;;;1.57;65.74
61742;BME280;47650;49.848;9.620;2022-12-11T01:32:46;99030.75;;;1.61;65.45
61742;BME280;47650;49.848;9.620;2022-12-11T01:35:14;99040.47;;;1.85;64.60
61742;BME280;47650;49.848;9.620;2022-12-11T01:37:39;99038.06;;;2.07;64.60
61742;BME280;47650;49.848;9.620;2022-12-11T01:40:13;99036.59;;;2.16;64.03
61742;BME280;47650;49.848;9.620;2022-12-11T01:42:39;99033.97;;;2.29;64.19
61742;BME280;47650;49.848;9.620;2022-12-11T01:45:38;99011.69;;;2.11;62.79
61742;BME280;47650;49.848;9.620;2022-12-11T01:48:12;99009.94;;;1.98;63.22
61742;BME280;47650;49.848;9.620;2022-12-11T01:50:43;99022.56;;;2.17;63.42
61742;BME280;47650;49.848;9.620;2022-12-11T01:53:12;99032.91;;;2.32;63.53
61742;BME280;47650;49.848;9.620;2022-12-11T01:55:40;99034.38;;;2.23;63.49
61742;BME280;47650;49.848;9.620;2022-12-11T01:58:05;99032.53;;;2.25;63.46
61742;BME280;47650;49.848;9.620;2022-12-11T02:00:32;99030.53;;;2.29;63.34
61742;BME280;47650;49.848;9.620;2022-12-11T02:02:57;99034.69;;;2.31;63.66
61742;BME280;47650;49.848;9.620;2022-12-11T02:05:29;99032.06;;;2.31;63.51
61742;BME280;47650;49.848;9.620;2022-12-11T02:07:57;99035.88;;;2.27;63.26
61742;BME280;47650;49.848;9.620;2022-12-11T02:10:30;99033.75;;;2.32;63.61
61742;BME280;47650;49.848;9.620;2022-12-11T02:16:18;99013.28;;;2.13;64.37
61742;BME280;47650;49.848;9.620;2022-12-11T02:18:54;99036.78;;;2.26;64.35
61742;BME280;47650;49.848;9.620;2022-12-11T02:21:37;99042.16;;;2.12;63.69
61742;BME280;47650;49.848;9.620;2022-12-11T02:27:16;99015.59;;;1.66;65.53
61742;BME280;47650;49.848;9.620;2022-12-11T02:32:21;99045.69;;;1.85;65.72
61742;BME280;47650;49.848;9.620;2022-12-11T02:34:55;99003.56;;;1.64;65.14
61742;BME280;47650;49.848;9.620;2022-12-11T02:37:31;99045.19;;;1.93;65.28
61742;BME280;47650;49.848;9.620;2022-12-11T02:39:58;99000.34;;;1.73;65.43
61742;BME280;47650;49.848;9.620;2022-12-11T02:42:28;99038.78;;;1.97;65.42
61742;BME280;47650;49.848;9.620;2022-12-11T02:44:55;99037.44;;;1.65;64.89
61742;BME280;47650;49.848;9.620;2022-12-11T02:47:25;99049.25;;;1.84;64.91
61742;BME280;47650;49.848;9.620;2022-12-11T02:49:54;99036.28;;;1.82;65.22
61742;BME280;47650;49.848;9.620;2022-12-11T02:52:24;99041.41;;;1.58;64.66
61742;BME280;47650;49.848;9.620;2022-12-11T02:54:52;99034.09;;;1.63;65.51
61742;BME280;47650;49.848;9.620;2022-12-11T02:57:31;99019.09;;;1.40;65.17
61742;BME280;47650;49.848;9.620;2022-12-11T03:00:04;99028.53;;;1.55;65.68
61742;BME280;47650;49.848;9.620;2022-12-11T03:02:35;99040.84;;;1.53;66.00
61742;BME280;47650;49.848;9.620;2022-12-11T03:05:00;99031.66;;;1.60;65.99
61742;BME280;47650;49.848;9.620;2022-12-11T03:07:32;99030.53;;;1.64;65.97
61742;BME280;47650;49.848;9.620;2022-12-11T03:09:58;99015.75;;;1.50;66.01
61742;BME280;47650;49.848;9.620;2022-12-11T03:12:28;99027.06;;;1.64;66.06
61742;BME280;47650;49.848;9.620;2022-12-11T03:14:59;99036.28;;;1.69;65.13
61742;BME280;47650;49.848;9.620;2022-12-11T03:17:55;99038.47;;;1.76;65.54
61742;BME280;47650;49.848;9.620;2022-12-11T03:20:42;99033.56;;;1.71;65.37
61742;BME280;47650;49.848;9.620;2022-12-11T03:23:27;99038.28;;;1.79;65.50
61742;BME280;47650;49.848;9.620;2022-12-11T03:26:00;99039.94;;;1.80;65.57
61742;BME280;47650;49.848;9.620;2022-12-11T03:28:46;99037.84;;;1.85;65.40
61742;BME280;47650;49.848;9.620;2022-12-11T03:31:22;99032.72;;;1.83;65.26
61742;BME280;47650;49.848;9.620;2022-12-11T03:33:53;99036.72;;;1.89;65.55
61742;BME280;47650;49.848;9.620;2022-12-11T03:36:24;99031.91;;;1.96;65.16
61742;BME280;47650;49.848;9.620;2022-12-11T03:38:56;99010.47;;;1.78;65.53
61742;BME280;47650;49.848;9.620;2022-12-11T03:41:25;99038.59;;;2.00;65.22
61742;BME280;47650;49.848;9.620;2022-12-11T03:43:54;99034.91;;;2.02;64.97
61742;BME280;47650;49.848;9.620;2022-12-11T03:46:26;99044.03;;;1.84;64.40
61742;BME280;47650;49.848;9.620;2022-12-11T03:48:55;99027.19;;;1.88;64.81
61742;BME280;47650;49.848;9.620;2022-12-11T03:51:23;99038.06;;;1.16;64.64
61742;BME280;47650;49.848;9.620;2022-12-11T03:53:50;99014.09;;;1.49;64.94
61742;BME280;47650;49.848;9.620;2022-12-11T03:56:19;98966.13;;;1.38;65.04
61742;BME280;47650;49.848;9.620;2022-12-11T03:58:47;99022.06;;;1.74;64.36
61742;BME280;47650;49.848;9.620;2022-12-11T04:01:14;99025.53;;;1.87;64.34
61742;BME280;47650;49.848;9.620;2022-12-11T04:03:39;99016.00;;;1.86;64.59
61742;BME280;47650;49.848;9.620;2022-12-11T04:06:10;99028.97;;;2.00;64.64
61742;BME280;47650;49.848;9.620;2022-12-11T04:08:40;99024.47;;;2.02;64.60
61742;BME280;47650;49.848;9.620;2022-12-11T04:11:07;99007.25;;;1.87;64.59
61742;BME280;47650;49.848;9.620;2022-12-11T04:13:51;99031.38;;;2.03;65.05
61742;BME280;47650;49.848;9.620;2022-12-11T04:16:37;99025.22;;;2.04;64.91
61742;BME280;47650;49.848;9.620;2022-12-11T04:19:10;99016.84;;;1.99;64.81
61742;BME280;47650;49.848;9.620;2022-12-11T04:21:54;98986.22;;;1.76;64.16
61742;BME280;47650;49.848;9.620;2022-12-11T04:24:38;99030.53;;;2.03;64.48
61742;BME280;47650;49.848;9.620;2022-12-11T04:27:03;99002.00;;;1.87;64.39
61742;BME280;47650;49.848;9.620;2022-12-11T04:29:28;99023.97;;;1.97;64.42
61742;BME280;47650;49.848;9.620;2022-12-11T04:31:56;99023.84;;;1.86;64.22
61742;BME280;47650;49.848;9.620;2022-12-11T04:34:22;99014.44;;;1.83;64.51
61742;BME280;47650;49.848;9.620;2022-12-11T04:36:51;99021.63;;;1.80;64.25
61742;BME280;47650;49.848;9.620;2022-12-11T04:39:24;99013.50;;;1.72;64.41
61742;BME280;47650;49.848;9.620;2022-12-11T04:41:49;99018.06;;;1.55;64.25
61742;BME280;47650;49.848;9.620;2022-12-11T04:44:20;99014.50;;;1.43;64.80
61742;BME280;47650;49.848;9.620;2022-12-11T04:46:45;99012.00;;;1.42;65.08
61742;BME280;47650;49.848;9.620;2022-12-11T04:49:12;99015.50;;;1.28;65.21
61742;BME280;47650;49.848;9.620;2022-12-11T04:51:37;99010.63;;;0.96;65.90
61742;BME280;47650;49.848;9.620;2022-12-11T04:54:02;99015.41;;;0.89;66.97
61742;BME280;47650;49.848;9.620;2022-12-11T04:56:27;99017.75;;;0.38;68.73
61742;BME280;47650;49.848;9.620;2022-12-11T04:58:53;99017.94;;;0.49;68.90
61742;BME280;47650;49.848;9.620;2022-12-11T05:01:20;99020.38;;;0.38;69.98
61742;BME280;47650;49.848;9.620;2022-12-11T05:03:46;99027.75;;;0.17;69.66
61742;BME280;47650;49.848;9.620;2022-12-11T05:06:11;99025.25;;;-0.13;70.43
61742;BME280;47650;49.848;9.620;2022-12-11T05:08:39;99021.28;;;-0.35;71.06
61742;BME280;47650;49.848;9.620;2022-12-11T05:11:09;99014.53;;;0.06;70.33
61742;BME280;47650;49.848;9.620;2022-12-11T05:13:36;99002.72;;;0.00;70.07
61742;BME280;47650;49.848;9.620;2022-12-11T05:16:06;99028.19;;;0.52;69.08
61742;BME280;47650;49.848;9.620;2022-12-11T05:18:33;99022.63;;;0.15;69.48
61742;BME280;47650;49.848;9.620;2022-12-11T05:21:05;98980.66;;;-0.09;70.10
61742;BME280;47650;49.848;9.620;2022-12-11T05:23:31;99008.66;;;0.72;69.33
61742;BME280;47650;49.848;9.620;2022-12-11T05:25:59;99008.00;;;0.83;68.27
61742;BME280;47650;49.848;9.620;2022-12-11T05:28:26;99016.84;;;0.39;68.15
61742;BME280;47650;49.848;9.620;2022-12-11T05:30:56;99000.84;;;0.16;68.87
61742;BME280;47650;49.848;9.620;2022-12-11T05:33:23;98948.09;;;-0.16;68.65
61742;BME280;47650;49.848;9.620;2022-12-11T05:35:48;99011.13;;;0.61;68.23
61742;BME280;47650;49.848;9.620;2022-12-11T05:38:15;98985.16;;;0.45;67.65
61742;BME280;47650;49.848;9.620;2022-12-11T05:40:40;99002.66;;;0.43;67.53
61742;BME280;47650;49.848;9.620;2022-12-11T05:43:06;99002.47;;;0.46;68.18
61742;BME280;47650;49.848;9.620;2022-12-11T05:45:31;98995.34;;;0.35;68.15
61742;BME280;47650;49.848;9.620;2022-12-11T05:47:57;98989.00;;;0.25;67.74
61742;BME280;47650;49.848;9.620;2022-12-11T05:50:22;98980.75;;;0.04;68.65
61742;BME280;47650;49.848;9.620;2022-12-11T05:52:47;99005.78;;;0.21;68.80
61742;BME280;47650;49.848;9.620;2022-12-11T05:55:13;99000.53;;;0.35;68.60
61742;BME280;47650;49.848;9.620;2022-12-11T05:57:38;98992.03;;;0.61;67.85
61742;BME280;47650;49.848;9.620;2022-12-11T06:00:06;98995.84;;;0.82;67.24
61742;BME280;47650;49.848;9.620;2022-12-11T06:02:35;98955.09;;;0.67;67.17
61742;BME280;47650;49.848;9.620;2022-12-11T06:05:01;98984.75;;;0.51;68.22
61742;BME280;47650;49.848;9.620;2022-12-11T06:07:32;98989.94;;;0.39;68.88
61742;BME280;47650;49.848;9.620;2022-12-11T06:10:03;98991.63;;;0.25;68.78
61742;BME280;47650;49.848;9.620;2022-12-11T06:12:29;98996.75;;;0.68;67.36
61742;BME280;47650;49.848;9.620;2022-12-11T06:14:55;98964.44;;;0.15;68.46
61742;BME280;47650;49.848;9.620;2022-12-11T06:17:28;99005.47;;;0.26;68.56
61742;BME280;47650;49.848;9.620;2022-12-11T06:19:55;98961.94;;;-0.30;69.44
61742;BME280;47650;49.848;9.620;2022-12-11T06:22:20;99003.66;;;0.28;69.28
61742;BME280;47650;49.848;9.620;2022-12-11T06:24:46;98998.97;;;0.18;70.12
61742;BME280;47650;49.848;9.620;2022-12-11T06:27:12;98998.22;;;0.31;69.77
61742;BME280;47650;49.848;9.620;2022-12-11T06:29:37;99005.34;;;0.00;70.33
61742;BME280;47650;49.848;9.620;2022-12-11T06:32:02;98996.75;;;0.27;69.37
61742;BME280;47650;49.848;9.620;2022-12-11T06:34:28;98969.75;;;0.28;68.94
61742;BME280;47650;49.848;9.620;2022-12-11T06:36:53;99003.84;;;0.52;68.35
61742;BME280;47650;49.848;9.620;2022-12-11T06:39:19;98981.53;;;0.75;68.38
61742;BME280;47650;49.848;9.620;2022-12-11T06:41:47;98995.75;;;0.84;67.80
61742;BME280;47650;49.848;9.620;2022-12-11T06:44:21;98983.63;;;1.10;66.83
61742;BME280;47650;49.848;9.620;2022-12-11T06:46:46;98991.66;;;1.07;66.44
61742;BME280;47650;49.848;9.620;2022-12-11T06:49:11;98990.06;;;0.64;67.04
61742;BME280;47650;49.848;9.620;2022-12-11T06:51:37;98987.03;;;0.98;66.75
61742;BME280;47650;49.848;9.620;2022-12-11T06:54:02;98989.81;;;1.22;66.19
61742;BME280;47650;49.848;9.620;2022-12-11T06:56:27;98984.59;;;1.35;65.63
61742;BME280;47650;49.848;9.620;2022-12-11T06:58:54;98966.41;;;1.20;65.84
61742;BME280;47650;49.848;9.620;2022-12-11T07:01:24;98995.19;;;1.46;65.13
61742;BME280;47650;49.848;9.620;2022-12-11T07:03:52;98978.03;;;1.42;65.42
61742;BME280;47650;49.848;9.620;2022-12-11T07:06:18;98994.88;;;1.63;65.93
61742;BME280;47650;49.848;9.620;2022-12-11T07:08:43;98992.38;;;1.75;65.35
61742;BME280;47650;49.848;9.620;2022-12-11T07:11:16;98995.91;;;1.61;65.15
61742;BME280;47650;49.848;9.620;2022-12-11T07:13:44;98993.72;;;1.67;64.82
61742;BME280;47650;49.848;9.620;2022-12-11T07:16:11;98989.63;;;1.38;64.62
61742;BME280;47650;49.848;9.620;2022-12-11T07:18:39;98990.47;;;0.71;65.97
61742;BME280;47650;49.848;9.620;2022-12-11T07:21:06;98984.34;;;0.99;64.78
61742;BME280;47650;49.848;9.620;2022-12-11T07:23:34;99000.44;;;1.06;64.52
61742;BME280;47650;49.848;9.620;2022-12-11T07:26:07;99002.34;;;1.29;64.19
61742;BME280;47650;49.848;9.620;2022-12-11T07:28:33;98996.94;;;1.20;64.44
61742;BME280;47650;49.848;9.620;2022-12-11T07:31:07;99006.72;;;0.62;64.92
61742;BME280;47650;49.848;9.620;2022-12-11T07:33:33;99009.63;;;0.84;64.29
61742;BME280;47650;49.848;9.620;2022-12-11T07:36:03;98967.16;;;0.82;63.71
61742;BME280;47650;49.848;9.620;2022-12-11T07:38:29;98977.59;;;-0.15;65.43
61742;BME280;47650;49.848;9.620;2022-12-11T07:40:54;99012.38;;;0.27;65.70
61742;BME280;47650;49.848;9.620;2022-12-11T07:43:22;99012.03;;;0.74;65.36
61742;BME280;47650;49.848;9.620;2022-12-11T07:45:48;98962.13;;;0.79;64.71
61742;BME280;47650;49.848;9.620;2022-12-11T07:48:13;98992.34;;;1.23;63.83
61742;BME280;47650;49.848;9.620;2022-12-11T07:50:38;99011.16;;;1.28;62.50
61742;BME280;47650;49.848;9.620;2022-12-11T07:53:03;99011.75;;;0.65;63.77
61742;BME280;47650;49.848;9.620;2022-12-11T07:55:31;99024.56;;;0.41;65.00
61742;BME280;47650;49.848;9.620;2022-12-11T07:57:57;98983.25;;;0.62;65.52
61742;BME280;47650;49.848;9.620;2022-12-11T08:00:22;99016.47;;;0.72;65.51
61742;BME280;47650;49.848;9.620;2022-12-11T08:02:53;99016.66;;;0.84;65.15
61742;BME280;47650;49.848;9.620;2022-12-11T08:05:24;99028.19;;;0.52;65.69
61742;BME280;47650;49.848;9.620;2022-12-11T08:07:50;99024.31;;;0.16;67.18
61742;BME280;47650;49.848;9.620;2022-12-11T08:10:15;99028.84;;;0.56;66.20
61742;BME280;47650;49.848;9.620;2022-12-11T08:12:41;99020.03;;;0.30;66.76
61742;BME280;47650;49.848;9.620;2022-12-11T08:15:06;99015.09;;;0.67;65.28
61742;BME280;47650;49.848;9.620;2022-12-11T08:17:32;99026.44;;;0.80;65.77
61742;BME280;47650;49.848;9.620;2022-12-11T08:19:57;99028.53;;;1.15;65.15
61742;BME280;47650;49.848;9.620;2022-12-11T08:22:22;99034.47;;;0.77;64.34
61742;BME280;47650;49.848;9.620;2022-12-11T08:24:48;99040.41;;;0.93;65.56
61742;BME280;47650;49.848;9.620;2022-12-11T08:27:15;99037.56;;;0.69;65.51
61742;BME280;47650;49.848;9.620;2022-12-11T08:29:41;98999.31;;;0.83;64.40
61742;BME280;47650;49.848;9.620;2022-12-11T08:32:06;99042.66;;;1.12;64.39
61742;BME280;47650;49.848;9.620;2022-12-11T08:34:33;99046.03;;;1.27;64.62
61742;BME280;47650;49.848;9.620;2022-12-11T08:36:58;99044.16;;;1.29;63.90
61742;BME280;47650;49.848;9.620;2022-12-11T08:39:23;99038.88;;;1.57;63.62
61742;BME280;47650;49.848;9.620;2022-12-11T08:41:50;99012.97;;;1.66;62.87
61742;BME280;47650;49.848;9.620;2022-12-11T08:44:15;99040.97;;;2.16;62.87
61742;BME280;47650;49.848;9.620;2022-12-11T08:46:40;99028.09;;;2.38;62.42
61742;BME280;47650;49.848;9.620;2022-12-11T08:49:06;99040.41;;;2.49;60.68
61742;BME280;47650;49.848;9.620;2022-12-11T08:51:31;99035.16;;;2.62;60.14
61742;BME280;47650;49.848;9.620;2022-12-11T08:53:59;99033.97;;;2.66;60.14
61742;BME280;47650;49.848;9.620;2022-12-11T08:56:25;99029.31;;;2.58;59.64
61742;BME280;47650;49.848;9.620;2022-12-11T08:58:52;99037.13;;;2.71;59.95
61742;BME280;47650;49.848;9.620;2022-12-11T09:01:20;99035.22;;;2.73;59.70
61742;BME280;47650;49.848;9.620;2022-12-11T09:03:47;99021.75;;;2.67;59.21
61742;BME280;47650;49.848;9.620;2022-12-11T09:06:15;99035.34;;;2.72;59.27
61742;BME280;47650;49.848;9.620;2022-12-11T09:08:43;99038.50;;;2.64;59.46
61742;BME280;47650;49.848;9.620;2022-12-11T09:11:14;99032.94;;;2.69;59.77
61742;BME280;47650;49.848;9.620;2022-12-11T09:13:40;99041.19;;;2.75;58.95
61742;BME280;47650;49.848;9.620;2022-12-11T09:16:07;98991.47;;;2.38;59.41
61742;BME280;47650;49.848;9.620;2022-12-11T09:18:36;99034.38;;;2.23;59.92
61742;BME280;47650;49.848;9.620;2022-12-11T09:21:05;99033.72;;;2.58;60.38
61742;BME280;47650;49.848;9.620;2022-12-11T09:23:30;99036.44;;;2.43;60.36
61742;BME280;47650;49.848;9.620;2022-12-11T09:25:57;99034.56;;;2.45;60.18
61742;BME280;47650;49.848;9.620;2022-12-11T09:28:23;99036.13;;;2.35;60.40
61742;BME280;47650;49.848;9.620;2022-12-11T09:30:51;99045.69;;;1.59;61.51
61742;BME280;47650;49.848;9.620;2022-12-11T09:33:16;99040.16;;;2.02;60.96
61742;BME280;47650;49.848;9.620;2022-12-11T09:35:42;99041.31;;;2.11;60.90
61742;BME280;47650;49.848;9.620;2022-12-11T09:38:07;99052.38;;;1.63;61.13
61742;BME280;47650;49.848;9.620;2022-12-11T09:40:39;99047.19;;;1.89;62.04
61742;BME280;47650;49.848;9.620;2022-12-11T09:43:18;99033.34;;;2.13;60.77
61742;BME280;47650;49.848;9.620;2022-12-11T09:45:49;99039.41;;;2.00;61.02
61742;BME280;47650;49.848;9.620;2022-12-11T09:48:19;99001.13;;;1.61;61.70
61742;BME280;47650;49.848;9.620;2022-12-11T09:50:47;99043.84;;;1.87;61.35
61742;BME280;47650;49.848;9.620;2022-12-11T09:53:20;99001.38;;;1.96;61.38
61742;BME280;47650;49.848;9.620;2022-12-11T09:55:52;99040.44;;;2.36;61.18
61742;BME280;47650;49.848;9.620;2022-12-11T09:58:56;99032.91;;;2.44;60.46
61742;BME280;47650;49.848;9.620;2022-12-11T10:10:10;99014.72;;;2.30;60.92
61742;BME280;47650;49.848;9.620;2022-12-11T10:12:55;99005.91;;;2.31;60.29
61742;BME280;47650;49.848;9.620;2022-12-11T10:15:48;99018.44;;;2.52;59.28
61742;BME280;47650;49.848;9.620;2022-12-11T10:18:18;99014.94;;;2.14;59.72
61742;BME280;47650;49.848;9.620;2022-12-11T10:20:49;99023.88;;;2.49;59.47
61742;BME280;47650;49.848;9.620;2022-12-11T10:23:24;99019.47;;;2.49;59.38
61742;BME280;47650;49.848;9.620;2022-12-11T10:25:56;99013.19;;;2.52;58.67
61742;BME280;47650;49.848;9.620;2022-12-11T10:28:27;99016.81;;;2.25;59.65
61742;BME280;47650;49.848;9.620;2022-12-11T10:31:01;98972.78;;;2.19;59.16
61742;BME280;47650;49.848;9.620;2022-12-11T10:35:59;99012.19;;;2.41;58.83
61742;BME280;47650;49.848;9.620;2022-12-11T10:38:32;99009.88;;;2.50;58.94
61742;BME280;47650;49.848;9.620;2022-12-11T10:41:04;98992.13;;;2.29;58.84
61742;BME280;47650;49.848;9.620;2022-12-11T10:43:33;99007.31;;;2.61;58.29
61742;BME280;47650;49.848;9.620;2022-12-11T10:45:59;99000.91;;;2.65;58.23
61742;BME280;47650;49.848;9.620;2022-12-11T10:48:24;98995.81;;;2.51;57.70
61742;BME280;47650;49.848;9.620;2022-12-11T10:50:59;98993.50;;;2.59;57.75
61742;BME280;47650;49.848;9.620;2022-12-11T10:53:26;98983.41;;;2.41;57.62
61742;BME280;47650;49.848;9.620;2022-12-11T10:55:52;98980.00;;;2.02;57.95
61742;BME280;47650;49.848;9.620;2022-12-11T10:58:22;98992.13;;;2.16;57.98
61742;BME280;47650;49.848;9.620;2022-12-11T11:01:02;98988.47;;;2.19;58.52
61742;BME280;47650;49.848;9.620;2022-12-11T11:03:27;98977.09;;;2.07;58.54
61742;BME280;47650;49.848;9.620;2022-12-11T11:06:03;98983.19;;;1.82;59.87
61742;BME280;47650;49.848;9.620;2022-12-11T11:08:38;98967.66;;;2.30;58.50
61742;BME280;47650;49.848;9.620;2022-12-11T11:11:19;98979.63;;;1.83;59.54
61742;BME280;47650;49.848;9.620;2022-12-11T11:13:45;98966.69;;;2.31;57.93
61742;BME280;47650;49.848;9.620;2022-12-11T11:16:17;98956.63;;;1.62;59.62
61742;BME280;47650;49.848;9.620;2022-12-11T11:18:52;98967.97;;;1.10;60.78
61742;BME280;47650;49.848;9.620;2022-12-11T11:21:22;98965.63;;;1.45;60.95
61742;BME280;47650;49.848;9.620;2022-12-11T11:23:49;98966.09;;;2.15;60.03
61742;BME280;47650;49.848;9.620;2022-12-11T11:26:16;98954.72;;;2.40;58.86
61742;BME280;47650;49.848;9.620;2022-12-11T11:28:48;98938.78;;;3.27;57.99
61742;BME280;47650;49.848;9.620;2022-12-11T11:31:16;98953.75;;;2.04;59.19
61742;BME280;47650;49.848;9.620;2022-12-11T11:34:05;98922.28;;;2.05;59.34
61742;BME280;47650;49.848;9.620;2022-12-11T11:36:34;98951.72;;;2.33;59.04
61742;BME280;47650;49.848;9.620;2022-12-11T11:41:53;98929.00;;;1.97;58.88
61742;BME280;47650;49.848;9.620;2022-12-11T11:44:28;98940.50;;;2.44;58.94
61742;BME280;47650;49.848;9.620;2022-12-11T11:47:08;98940.00;;;2.26;58.53
61742;BME280;47650;49.848;9.620;2022-12-11T11:49:45;98934.34;;;3.05;57.37
61742;BME280;47650;49.848;9.620;2022-12-11T11:52:38;98923.13;;;3.61;55.33
61742;BME280;47650;49.848;9.620;2022-12-11T11:55:39;98920.75;;;3.46;55.57
61742;BME280;47650;49.848;9.620;2022-12-11T11:58:21;98926.94;;;3.45;56.07
61742;BME280;47650;49.848;9.620;2022-12-11T12:00:52;98929.56;;;2.74;57.64
61742;BME280;47650;49.848;9.620;2022-12-11T12:03:20;98915.34;;;3.36;54.99
61742;BME280;47650;49.848;9.620;2022-12-11T12:12:04;98909.66;;;3.43;55.44
61742;BME280;47650;49.848;9.620;2022-12-11T12:14:56;98909.47;;;3.10;55.86
61742;BME280;47650;49.848;9.620;2022-12-11T12:23:38;98905.00;;;2.40;57.77
61742;BME280;47650;49.848;9.620;2022-12-11T12:26:28;98913.13;;;1.87;59.11
61742;BME280;47650;49.848;9.620;2022-12-11T12:29:23;98919.44;;;1.72;59.90
61742;BME280;47650;49.848;9.620;2022-12-11T12:35:01;98887.66;;;2.63;58.17
61742;BME280;47650;49.848;9.620;2022-12-11T12:43:29;98897.88;;;1.81;60.67
61742;BME280;47650;49.848;9.620;2022-12-11T12:46:26;98905.56;;;2.08;59.69
61742;BME280;47650;49.848;9.620;2022-12-11T12:48:53;98904.06;;;1.54;60.14
61742;BME280;47650;49.848;9.620;2022-12-11T12:51:21;98895.16;;;2.19;59.18
61742;BME280;47650;49.848;9.620;2022-12-11T12:54:00;98900.94;;;2.12;59.47
61742;BME280;47650;49.848;9.620;2022-12-11T12:56:30;98893.31;;;2.33;59.33
61742;BME280;47650;49.848;9.620;2022-12-11T12:58:57;98900.91;;;2.49;59.54
61742;BME280;47650;49.848;9.620;2022-12-11T13:01:26;98902.28;;;2.41;58.58
61742;BME280;47650;49.848;9.620;2022-12-11T13:04:02;98902.59;;;1.63;61.46
61742;BME280;47650;49.848;9.620;2022-12-11T13:06:40;98898.00;;;1.41;60.30
61742;BME280;47650;49.848;9.620;2022-12-11T13:11:42;98896.09;;;1.68;60.03
61742;BME280;47650;49.848;9.620;2022-12-11T13:16:46;98887.81;;;2.73;58.37
61742;BME280;47650;49.848;9.620;2022-12-11T13:22:03;98887.13;;;3.40;56.76
61742;BME280;47650;49.848;9.620;2022-12-11T13:24:32;98890.69;;;3.28;56.48
61742;BME280;47650;49.848;9.620;2022-12-11T13:27:19;98902.09;;;2.80;58.00
61742;BME280;47650;49.848;9.620;2022-12-11T13:29:46;98895.78;;;2.47;57.67
61742;BME280;47650;49.848;9.620;2022-12-11T13:34:49;98900.00;;;2.37;58.53
61742;BME280;47650;49.848;9.620;2022-12-11T13:37:37;98898.78;;;2.54;58.91
61742;BME280;47650;49.848;9.620;2022-12-11T13:40:14;98908.28;;;1.94;59.60
61742;BME280;47650;49.848;9.620;2022-12-11T13:42:56;98910.72;;;1.71;59.67
61742;BME280;47650;49.848;9.620;2022-12-11T13:45:27;98905.34;;;2.11;59.17
61742;BME280;47650;49.848;9.620;2022-12-11T13:47:58;98896.50;;;2.25;58.13
61742;BME280;47650;49.848;9.620;2022-12-11T13:50:27;98903.47;;;2.97;56.89
61742;BME280;47650;49.848;9.620;2022-12-11T13:52:54;98893.19;;;2.82;56.86
61742;BME280;47650;49.848;9.620;2022-12-11T13:55:29;98904.59;;;2.46;56.04
61742;BME280;47650;49.848;9.620;2022-12-11T13:57:56;98894.16;;;1.59;57.84
61742;BME280;47650;49.848;9.620;2022-12-11T14:00:25;98904.38;;;2.12;57.20
61742;BME280;47650;49.848;9.620;2022-12-11T14:02:54;98908.56;;;1.65;58.14
61742;BME280;47650;49.848;9.620;2022-12-11T14:05:21;98898.47;;;1.97;57.68
61742;BME280;47650;49.848;9.620;2022-12-11T14:07:52;98899.97;;;2.13;57.72
61742;BME280;47650;49.848;9.620;2022-12-11T14:10:24;98900.66;;;2.28;57.15
61742;BME280;47650;49.848;9.620;2022-12-11T14:12:52;98905.41;;;1.85;57.85
61742;BME280;47650;49.848;9.620;2022-12-11T14:15:19;98918.13;;;2.03;58.24
61742;BME280;47650;49.848;9.620;2022-12-11T14:17:45;98911.44;;;1.09;59.92
61742;BME280;47650;49.848;9.620;2022-12-11T14:20:19;98912.63;;;1.56;59.29